Time;durP1;ratioP1;P1;durP2;ratioP2;P2;SDS_P1;SDS_P2;PMS_P1;PMS_P2;Temp;Humidity;BMP_temperature;BMP_pressure;BME280_temperature;BME280_humidity;BME280_pressure;Samples;Min_cycle;Max_cycle;Signal;HPM_P1;HPM_P2
2021/12/12 00:00:32;;;;;;;10.23;3.83;;;1.70;99.90;;;;;;4978446;28;20432;-64
2021/12/12 00:03:19;;;;;;;5.80;2.80;;;1.60;99.90;;;;;;4974732;28;20423;-65
2021/12/12 00:05:48;;;;;;;6.87;2.60;;;1.70;99.90;;;;;;4972038;28;20468;-65
2021/12/12 00:08:15;;;;;;;7.77;2.97;;;1.60;99.90;;;;;;4976547;28;20764;-65
2021/12/12 00:10:45;;;;;;;11.07;3.20;;;1.70;99.90;;;;;;4972464;28;20423;-66
2021/12/12 00:13:18;;;;;;;8.20;3.63;;;1.70;99.90;;;;;;4972420;28;20416;-66
2021/12/12 00:15:44;;;;;;;6.87;3.07;;;1.70;99.90;;;;;;4971705;28;20423;-65
2021/12/12 00:18:10;;;;;;;6.73;3.30;;;1.70;99.90;;;;;;4971635;28;20469;-66
2021/12/12 00:20:37;;;;;;;3.67;2.60;;;1.80;99.90;;;;;;4972310;28;20408;-65
2021/12/12 00:23:05;;;;;;;3.67;2.33;;;1.70;99.90;;;;;;4972364;28;20617;-65
2021/12/12 00:25:36;;;;;;;5.80;2.50;;;1.70;99.90;;;;;;4973569;28;20979;-66
2021/12/12 00:28:03;;;;;;;6.37;3.20;;;1.70;99.90;;;;;;4972071;28;20905;-65
2021/12/12 00:30:29;;;;;;;4.13;2.23;;;1.70;99.90;;;;;;4978075;28;20803;-65
2021/12/12 00:32:55;;;;;;;6.70;3.13;;;1.70;99.90;;;;;;4976747;28;20466;-65
2021/12/12 00:35:22;;;;;;;7.37;3.10;;;1.70;99.90;;;;;;4979863;28;20994;-66
2021/12/12 00:37:54;;;;;;;4.93;2.50;;;1.70;99.90;;;;;;4977742;28;20334;-65
2021/12/12 00:40:31;;;;;;;5.17;2.70;;;1.70;99.90;;;;;;4983070;28;20446;-65
2021/12/12 00:43:01;;;;;;;4.20;2.30;;;1.70;99.90;;;;;;4973503;28;20430;-65
2021/12/12 00:45:28;;;;;;;6.00;3.27;;;1.70;99.90;;;;;;4972634;28;20976;-65
2021/12/12 00:47:55;;;;;;;6.00;3.00;;;1.70;99.90;;;;;;4970820;28;20432;-66
2021/12/12 00:50:30;;;;;;;5.50;3.00;;;1.60;99.90;;;;;;4971604;28;20438;-65
2021/12/12 00:52:56;;;;;;;9.30;3.10;;;1.70;99.90;;;;;;4971721;28;20419;-66
2021/12/12 00:55:23;;;;;;;10.60;3.40;;;1.70;99.90;;;;;;4978961;28;20498;-65
2021/12/12 00:57:53;;;;;;;8.80;3.43;;;1.70;99.90;;;;;;4971986;28;20447;-66
2021/12/12 01:00:22;;;;;;;7.97;3.73;;;1.70;99.90;;;;;;4983955;28;20523;-65
2021/12/12 01:02:48;;;;;;;4.20;2.53;;;1.70;99.90;;;;;;4971092;28;20442;-65
2021/12/12 01:05:14;;;;;;;7.83;3.70;;;1.70;99.90;;;;;;4970871;28;20464;-65
2021/12/12 01:07:43;;;;;;;5.60;3.77;;;1.70;99.90;;;;;;4976827;28;20185;-66
2021/12/12 01:10:17;;;;;;;9.40;4.17;;;1.70;99.90;;;;;;4971215;28;21004;-65
2021/12/12 01:12:43;;;;;;;5.90;3.20;;;1.60;99.90;;;;;;4971727;28;21296;-65
2021/12/12 01:15:21;;;;;;;6.03;4.00;;;1.60;99.90;;;;;;4982152;28;20472;-65
2021/12/12 01:17:51;;;;;;;6.23;3.30;;;1.70;99.90;;;;;;4970272;28;20479;-65
2021/12/12 01:20:57;;;;;;;10.63;4.30;;;1.60;99.90;;;;;;4971127;28;20470;-65
2021/12/12 01:23:34;;;;;;;8.33;3.47;;;1.60;99.90;;;;;;4971521;28;20472;-65
2021/12/12 01:26:00;;;;;;;9.33;4.23;;;1.60;99.90;;;;;;4976946;28;20476;-64
2021/12/12 01:28:30;;;;;;;7.33;3.50;;;1.60;99.90;;;;;;4972830;28;20431;-64
2021/12/12 01:30:59;;;;;;;5.60;3.23;;;1.60;99.90;;;;;;4986458;28;20514;-64
2021/12/12 01:33:35;;;;;;;5.33;2.67;;;1.60;99.90;;;;;;4975004;28;20431;-64
2021/12/12 01:36:29;;;;;;;8.53;4.00;;;1.60;99.90;;;;;;4984219;28;20431;-64
2021/12/12 01:38:56;;;;;;;37.87;4.27;;;1.60;99.90;;;;;;4976826;28;20780;-64
2021/12/12 01:41:25;;;;;;;12.40;4.00;;;1.60;99.90;;;;;;4970934;28;20443;-64
2021/12/12 01:43:55;;;;;;;6.67;2.73;;;1.60;99.90;;;;;;4971165;28;20432;-64
2021/12/12 01:46:24;;;;;;;5.87;3.67;;;1.60;99.90;;;;;;4970082;28;21363;-64
2021/12/12 01:49:14;;;;;;;11.73;3.53;;;1.60;99.90;;;;;;4970421;28;21014;-64
2021/12/12 01:51:42;;;;;;;8.20;4.60;;;1.60;99.90;;;;;;4971089;28;20470;-64
2021/12/12 01:54:11;;;;;;;6.37;2.47;;;1.60;99.90;;;;;;4970818;28;20559;-64
2021/12/12 01:56:43;;;;;;;16.17;3.13;;;1.60;99.90;;;;;;4976003;28;20438;-64
2021/12/12 01:59:10;;;;;;;6.57;2.20;;;1.50;99.90;;;;;;4970893;28;20424;-64
2021/12/12 02:01:41;;;;;;;4.50;2.50;;;1.70;99.90;;;;;;4976414;28;20434;-64
2021/12/12 02:04:15;;;;;;;4.57;2.40;;;1.70;99.90;;;;;;4974437;28;20497;-64
2021/12/12 02:06:46;;;;;;;7.27;3.33;;;1.70;99.90;;;;;;4977184;28;20419;-64
2021/12/12 02:09:14;;;;;;;8.83;4.37;;;1.70;99.90;;;;;;4970597;28;20458;-65
2021/12/12 02:11:43;;;;;;;7.17;2.90;;;1.70;99.90;;;;;;4970392;28;20426;-65
2021/12/12 02:14:12;;;;;;;2.83;2.10;;;1.70;99.90;;;;;;4970616;28;20561;-64
2021/12/12 02:16:43;;;;;;;5.57;2.80;;;1.70;99.90;;;;;;4969252;28;20420;-64
2021/12/12 02:19:09;;;;;;;6.90;3.00;;;1.70;99.90;;;;;;4977346;28;20518;-64
2021/12/12 02:38:24;;;;;;;4.90;2.93;;;1.60;99.90;;;;;;4961815;28;20926;-64
2021/12/12 02:40:59;;;;;;;14.97;3.07;;;1.60;99.90;;;;;;4971233;28;20442;-64
2021/12/12 02:43:28;;;;;;;9.00;3.57;;;1.60;99.90;;;;;;4969929;28;20431;-64
2021/12/12 02:45:56;;;;;;;6.50;2.90;;;1.50;99.90;;;;;;4968847;28;21011;-64
2021/12/12 02:48:35;;;;;;;5.00;2.63;;;1.50;99.90;;;;;;4968699;28;20427;-64
2021/12/12 02:51:06;;;;;;;6.10;3.00;;;1.50;99.90;;;;;;4969616;28;20439;-64
2021/12/12 02:53:44;;;;;;;8.20;2.80;;;1.50;99.90;;;;;;4972541;28;20428;-63
2021/12/12 02:56:16;;;;;;;5.37;2.73;;;1.50;99.90;;;;;;4969573;28;20511;-64
2021/12/12 02:58:43;;;;;;;3.80;2.13;;;1.40;99.90;;;;;;4970678;28;21004;-64
2021/12/12 03:01:14;;;;;;;10.00;3.60;;;1.40;99.90;;;;;;4969755;28;20434;-64
2021/12/12 03:03:44;;;;;;;4.67;3.00;;;1.40;99.90;;;;;;4970627;28;20509;-64
2021/12/12 03:06:13;;;;;;;6.63;3.10;;;1.30;99.90;;;;;;4969481;28;20455;-64
2021/12/12 03:08:41;;;;;;;7.10;3.00;;;1.30;99.90;;;;;;4983976;28;20807;-64
2021/12/12 03:11:08;;;;;;;4.47;2.43;;;1.30;99.90;;;;;;4977436;28;20435;-64
2021/12/12 03:13:34;;;;;;;5.43;2.63;;;1.20;99.90;;;;;;4969668;28;20420;-64
2021/12/12 03:15:59;;;;;;;5.40;3.60;;;1.20;99.90;;;;;;4968961;28;21000;-64
2021/12/12 03:18:39;;;;;;;9.40;2.47;;;1.20;99.90;;;;;;4968845;28;20315;-64
2021/12/12 03:21:15;;;;;;;6.37;3.23;;;1.10;99.90;;;;;;4969379;28;20700;-64
2021/12/12 03:23:52;;;;;;;4.10;1.97;;;1.10;99.90;;;;;;4969323;28;20423;-65
2021/12/12 03:26:20;;;;;;;3.60;2.17;;;1.20;99.90;;;;;;4968306;28;20470;-64
2021/12/12 03:28:48;;;;;;;4.77;1.97;;;1.20;99.90;;;;;;4969507;28;20420;-64
2021/12/12 03:31:23;;;;;;;8.73;2.63;;;1.10;99.90;;;;;;4971392;28;20604;-64
2021/12/12 03:33:48;;;;;;;13.50;4.50;;;1.10;99.90;;;;;;4974067;28;20429;-64
2021/12/12 03:36:16;;;;;;;4.17;2.47;;;1.10;99.90;;;;;;4974260;28;20432;-64
2021/12/12 03:38:53;;;;;;;4.30;2.00;;;1.10;99.90;;;;;;4979649;28;20226;-64
2021/12/12 03:41:26;;;;;;;6.93;2.00;;;1.00;99.90;;;;;;4969026;28;20435;-64
2021/12/12 03:43:57;;;;;;;3.60;1.70;;;1.00;99.90;;;;;;4970457;28;20426;-64
2021/12/12 03:46:22;;;;;;;3.57;2.30;;;0.90;99.90;;;;;;4968448;28;20545;-64
2021/12/12 03:48:48;;;;;;;7.67;2.00;;;0.90;99.90;;;;;;4969062;28;20486;-64
2021/12/12 03:51:17;;;;;;;5.23;2.33;;;0.80;99.90;;;;;;4968959;28;20216;-64
2021/12/12 03:53:43;;;;;;;5.57;2.53;;;0.80;99.90;;;;;;4968830;28;20428;-64
2021/12/12 03:56:11;;;;;;;5.03;2.40;;;0.80;99.90;;;;;;4968959;28;20466;-64
2021/12/12 03:58:38;;;;;;;5.23;2.73;;;0.70;99.90;;;;;;4975762;28;20778;-64
2021/12/12 04:01:09;;;;;;;7.10;2.60;;;0.70;99.90;;;;;;4978359;28;20420;-64
2021/12/12 04:03:37;;;;;;;8.40;3.40;;;0.60;99.90;;;;;;4970448;28;20429;-64
2021/12/12 04:06:13;;;;;;;5.23;2.30;;;0.60;99.90;;;;;;4969072;28;20472;-65
2021/12/12 04:08:42;;;;;;;4.70;2.60;;;0.60;99.90;;;;;;4968411;28;20431;-64
2021/12/12 04:11:16;;;;;;;5.30;2.40;;;0.50;99.90;;;;;;4968410;28;20467;-64
2021/12/12 04:13:44;;;;;;;4.00;2.40;;;0.50;99.90;;;;;;4975129;28;20518;-64
2021/12/12 04:16:10;;;;;;;5.23;2.23;;;0.40;99.90;;;;;;4967692;28;20458;-64
2021/12/12 04:18:37;;;;;;;8.13;2.70;;;0.40;99.90;;;;;;4968120;28;20504;-64
2021/12/12 04:21:04;;;;;;;5.10;3.10;;;0.30;99.90;;;;;;4968550;28;21410;-64
2021/12/12 04:23:30;;;;;;;6.10;3.00;;;0.20;99.90;;;;;;4968423;28;20430;-64
2021/12/12 04:26:10;;;;;;;7.57;2.80;;;0.20;99.90;;;;;;4967967;28;20466;-64
2021/12/12 04:28:39;;;;;;;11.30;3.20;;;0.10;99.90;;;;;;4968372;28;20651;-64
2021/12/12 04:31:05;;;;;;;8.47;3.43;;;0.00;99.90;;;;;;4973691;28;20450;-64
2021/12/12 04:33:31;;;;;;;6.30;2.80;;;0.00;99.90;;;;;;4981746;28;20430;-63
2021/12/12 04:35:57;;;;;;;13.13;3.53;;;-0.10;99.90;;;;;;4971852;28;20498;-66
2021/12/12 04:38:23;;;;;;;7.47;2.90;;;-0.10;99.90;;;;;;4975235;28;20287;-66
2021/12/12 04:40:49;;;;;;;5.60;2.50;;;-0.10;99.90;;;;;;4971968;28;20551;-66
2021/12/12 04:43:15;;;;;;;5.83;3.53;;;-0.20;99.90;;;;;;4968398;28;20873;-66
2021/12/12 04:46:02;;;;;;;7.07;3.63;;;-0.20;99.90;;;;;;4969041;28;20216;-66
2021/12/12 04:51:33;;;;;;;8.40;3.70;;;0.00;99.90;;;;;;4978573;28;20429;-66
2021/12/12 04:54:36;;;;;;;5.73;3.03;;;0.00;99.90;;;;;;4971727;28;21164;-66
2021/12/12 04:57:18;;;;;;;8.00;2.80;;;0.10;99.90;;;;;;4972668;28;20973;-65
2021/12/12 04:59:51;;;;;;;9.10;3.30;;;0.10;99.90;;;;;;4976343;28;20434;-66
2021/12/12 05:02:28;;;;;;;6.03;2.40;;;0.20;99.90;;;;;;4971566;28;20459;-66
2021/12/12 05:04:56;;;;;;;6.10;3.40;;;0.20;99.90;;;;;;4974270;28;20467;-66
2021/12/12 05:07:25;;;;;;;7.67;3.87;;;0.10;99.90;;;;;;4973630;28;20727;-66
2021/12/12 05:10:02;;;;;;;10.27;3.73;;;0.10;99.90;;;;;;4971316;28;20455;-66
2021/12/12 05:12:38;;;;;;;5.33;3.43;;;0.10;99.90;;;;;;4971653;28;20424;-66
2021/12/12 05:15:12;;;;;;;6.87;2.77;;;0.20;99.90;;;;;;4971126;28;20438;-63
2021/12/12 05:17:53;;;;;;;6.63;2.87;;;0.20;99.90;;;;;;4971093;28;20424;-63
2021/12/12 05:20:26;;;;;;;5.80;3.03;;;0.20;99.90;;;;;;4970640;28;20443;-63
2021/12/12 05:22:55;;;;;;;12.23;3.10;;;0.30;99.90;;;;;;4971256;28;20809;-63
2021/12/12 05:25:25;;;;;;;5.73;3.27;;;0.20;99.90;;;;;;4970623;28;20594;-65
2021/12/12 05:27:54;;;;;;;6.97;3.57;;;0.30;99.90;;;;;;4977447;28;20510;-65
2021/12/12 05:30:27;;;;;;;9.53;3.50;;;0.20;99.90;;;;;;4977631;28;20443;-66
2021/12/12 05:32:53;;;;;;;8.80;4.00;;;0.20;99.90;;;;;;4970627;28;20423;-66
2021/12/12 05:35:23;;;;;;;6.07;3.13;;;0.20;99.90;;;;;;4979538;28;20554;-66
2021/12/12 05:37:52;;;;;;;6.97;3.97;;;0.10;99.90;;;;;;4980740;28;20420;-66
2021/12/12 05:40:21;;;;;;;9.97;3.90;;;0.10;99.90;;;;;;4978445;28;20470;-66
2021/12/12 05:42:49;;;;;;;10.40;4.80;;;0.10;99.90;;;;;;4971097;28;20558;-66
2021/12/12 05:45:16;;;;;;;6.90;3.70;;;0.00;99.90;;;;;;4976951;28;20518;-66
2021/12/12 05:47:45;;;;;;;8.93;3.60;;;0.00;99.90;;;;;;4971105;28;20420;-66
2021/12/12 05:50:13;;;;;;;5.70;3.63;;;-0.10;99.90;;;;;;4970357;28;20420;-66
2021/12/12 05:52:42;;;;;;;5.80;2.90;;;-0.10;99.90;;;;;;4970835;28;20435;-66
2021/12/12 05:55:09;;;;;;;6.83;3.30;;;-0.10;99.90;;;;;;4976765;28;20438;-66
2021/12/12 05:57:35;;;;;;;6.80;3.47;;;-0.20;99.90;;;;;;4972302;28;20431;-66
2021/12/12 06:00:06;;;;;;;5.67;3.57;;;-0.20;99.90;;;;;;4976853;28;20451;-66
2021/12/12 06:02:33;;;;;;;5.73;3.20;;;-0.30;99.90;;;;;;4969558;28;20428;-66
2021/12/12 06:04:59;;;;;;;11.77;3.60;;;-0.30;99.90;;;;;;4973701;28;20459;-66
2021/12/12 06:07:25;;;;;;;8.30;4.00;;;-0.30;99.90;;;;;;4977105;28;20430;-66
2021/12/12 06:09:52;;;;;;;5.87;3.40;;;-0.30;99.90;;;;;;4972803;28;20199;-66
2021/12/12 06:12:19;;;;;;;6.00;3.67;;;-0.30;99.90;;;;;;4970206;28;20432;-66
2021/12/12 06:14:46;;;;;;;8.37;4.13;;;-0.40;99.90;;;;;;4970589;28;20523;-63
2021/12/12 06:17:15;;;;;;;9.60;3.60;;;-0.40;99.90;;;;;;4969381;28;20436;-66
2021/12/12 06:19:42;;;;;;;8.37;3.60;;;-0.40;99.90;;;;;;4969878;28;20439;-66
2021/12/12 06:22:09;;;;;;;7.03;3.73;;;-0.40;99.90;;;;;;4970210;28;20436;-66
2021/12/12 06:24:37;;;;;;;7.87;4.00;;;-0.50;99.90;;;;;;4969810;28;20432;-66
2021/12/12 06:27:06;;;;;;;11.20;4.30;;;-0.50;99.90;;;;;;4975302;28;20431;-66
2021/12/12 06:29:33;;;;;;;13.50;5.40;;;-0.40;99.90;;;;;;4976052;28;20442;-66
2021/12/12 06:31:59;;;;;;;9.63;4.17;;;-0.50;99.90;;;;;;4972781;28;20518;-66
2021/12/12 06:34:25;;;;;;;8.73;3.70;;;-0.40;99.90;;;;;;4981199;28;20534;-66
2021/12/12 06:36:52;;;;;;;6.80;3.63;;;-0.40;99.90;;;;;;4975058;28;20198;-66
2021/12/12 06:39:19;;;;;;;12.00;4.70;;;-0.40;99.90;;;;;;4970266;28;20176;-66
2021/12/12 06:41:47;;;;;;;11.10;3.90;;;-0.40;99.90;;;;;;4969238;28;20416;-66
2021/12/12 06:44:13;;;;;;;7.90;3.80;;;-0.40;99.90;;;;;;4971771;28;20442;-66
2021/12/12 06:46:41;;;;;;;8.87;4.30;;;-0.30;99.90;;;;;;4968637;28;20474;-66
2021/12/12 06:49:09;;;;;;;8.10;4.03;;;-0.40;99.90;;;;;;4969574;28;20228;-66
2021/12/12 06:51:37;;;;;;;12.00;4.30;;;-0.40;99.90;;;;;;4969396;28;20597;-66
2021/12/12 06:54:04;;;;;;;8.47;2.80;;;-0.40;99.90;;;;;;4969373;28;20456;-66
2021/12/12 06:56:30;;;;;;;5.93;2.57;;;-0.40;99.90;;;;;;4968707;28;20437;-66
2021/12/12 06:58:58;;;;;;;10.20;2.23;;;-0.40;99.90;;;;;;4980281;28;20427;-66
2021/12/12 07:01:28;;;;;;;5.97;2.53;;;-0.40;99.90;;;;;;4972762;28;21229;-66
2021/12/12 07:03:56;;;;;;;6.33;2.70;;;-0.40;99.90;;;;;;4969566;28;20423;-67
2021/12/12 07:06:25;;;;;;;5.27;2.43;;;-0.30;99.90;;;;;;4972398;28;20521;-66
2021/12/12 07:08:52;;;;;;;4.90;2.50;;;-0.30;99.90;;;;;;4968945;28;20436;-67
2021/12/12 07:11:22;;;;;;;4.70;2.40;;;-0.30;99.90;;;;;;4969151;28;20435;-66
2021/12/12 07:13:49;;;;;;;3.47;2.40;;;-0.20;99.90;;;;;;4968974;28;20972;-64
2021/12/12 07:16:17;;;;;;;6.27;1.93;;;-0.10;99.90;;;;;;4969399;28;20428;-64
2021/12/12 07:18:44;;;;;;;3.60;1.50;;;-0.10;99.90;;;;;;4972381;28;20983;-65
2021/12/12 07:21:12;;;;;;;2.43;1.37;;;0.00;99.90;;;;;;4968502;28;20424;-66
2021/12/12 07:23:41;;;;;;;3.50;2.00;;;0.00;99.90;;;;;;4969136;28;20423;-66
2021/12/12 07:26:09;;;;;;;3.93;1.97;;;0.10;99.90;;;;;;4968312;28;20471;-66
2021/12/12 07:28:36;;;;;;;5.10;2.10;;;0.00;99.90;;;;;;4969100;28;20743;-66
2021/12/12 07:31:06;;;;;;;10.93;2.60;;;0.10;99.90;;;;;;4977235;28;21103;-64
2021/12/12 07:33:34;;;;;;;4.90;2.73;;;0.10;99.90;;;;;;4970813;28;20510;-64
2021/12/12 07:36:03;;;;;;;4.70;2.30;;;0.10;99.90;;;;;;4978121;28;20427;-63
2021/12/12 07:38:31;;;;;;;8.93;2.27;;;0.10;99.90;;;;;;4974161;28;20423;-64
2021/12/12 07:40:58;;;;;;;7.80;3.70;;;0.10;99.90;;;;;;4970152;28;20909;-64
2021/12/12 07:43:25;;;;;;;11.70;3.97;;;0.10;99.90;;;;;;4974947;28;20589;-64
2021/12/12 07:45:51;;;;;;;8.67;3.20;;;0.20;99.90;;;;;;4970038;28;20467;-64
2021/12/12 07:48:17;;;;;;;8.53;3.47;;;0.10;99.90;;;;;;4968399;28;20431;-64
2021/12/12 07:50:44;;;;;;;6.07;2.43;;;0.10;99.90;;;;;;4975473;28;20824;-63
2021/12/12 07:53:11;;;;;;;6.23;2.70;;;0.20;99.90;;;;;;4969060;28;20185;-64
2021/12/12 07:55:38;;;;;;;3.80;1.87;;;0.20;99.90;;;;;;4972815;28;20443;-64
2021/12/12 07:58:09;;;;;;;4.07;1.97;;;0.20;99.90;;;;;;4968791;28;20426;-63
2021/12/12 08:00:36;;;;;;;5.43;2.07;;;0.20;99.90;;;;;;4978365;28;20423;-64
2021/12/12 08:03:03;;;;;;;4.67;1.77;;;0.20;99.90;;;;;;4968219;28;20431;-64
2021/12/12 08:05:31;;;;;;;3.30;1.77;;;0.30;99.90;;;;;;4973251;28;20467;-64
2021/12/12 08:08:06;;;;;;;3.63;2.17;;;0.30;99.90;;;;;;4978020;28;20740;-65
2021/12/12 08:10:33;;;;;;;6.10;2.17;;;0.40;99.90;;;;;;4977243;28;20431;-64
2021/12/12 08:12:59;;;;;;;4.33;1.87;;;0.50;99.90;;;;;;4968731;28;20455;-64
2021/12/12 08:15:28;;;;;;;3.73;2.00;;;0.50;99.90;;;;;;4968174;28;20490;-65
2021/12/12 08:17:56;;;;;;;6.70;1.90;;;0.70;99.90;;;;;;4968286;28;20695;-65
2021/12/12 08:20:22;;;;;;;5.87;2.23;;;0.70;99.90;;;;;;4968546;28;20498;-64
2021/12/12 08:22:49;;;;;;;7.30;2.43;;;0.90;99.90;;;;;;4969172;28;20424;-65
2021/12/12 08:25:16;;;;;;;3.60;1.70;;;0.90;99.90;;;;;;4970942;28;20464;-65
2021/12/12 08:27:43;;;;;;;3.03;1.40;;;0.90;99.90;;;;;;4972347;28;20756;-66
2021/12/12 08:30:11;;;;;;;2.90;1.50;;;0.90;99.90;;;;;;4987659;28;21035;-65
2021/12/12 08:32:38;;;;;;;5.07;2.10;;;0.90;99.90;;;;;;4971730;28;20451;-65
2021/12/12 08:35:06;;;;;;;4.23;1.87;;;1.00;99.90;;;;;;4982643;28;20431;-65
2021/12/12 08:37:32;;;;;;;4.17;1.73;;;1.00;99.90;;;;;;4980167;28;20462;-65
2021/12/12 08:39:58;;;;;;;4.77;2.17;;;1.00;99.90;;;;;;4973990;28;20463;-65
2021/12/12 08:42:27;;;;;;;4.70;1.90;;;1.10;99.90;;;;;;4971150;28;20431;-65
2021/12/12 08:44:54;;;;;;;2.00;1.23;;;1.10;99.90;;;;;;4973114;28;20459;-65
2021/12/12 08:47:20;;;;;;;3.17;1.50;;;1.10;99.90;;;;;;4971211;28;20427;-65
2021/12/12 08:49:48;;;;;;;3.00;1.20;;;1.10;99.90;;;;;;4971963;28;20419;-64
2021/12/12 08:52:19;;;;;;;3.97;2.03;;;1.10;99.90;;;;;;4971977;28;20442;-65
2021/12/12 08:54:48;;;;;;;2.83;1.57;;;1.10;99.90;;;;;;4971459;28;20447;-64
2021/12/12 08:57:33;;;;;;;4.50;1.90;;;1.10;99.90;;;;;;4987211;28;20534;-64
2021/12/12 09:00:04;;;;;;;3.70;1.67;;;1.10;99.90;;;;;;4984989;28;20919;-64
2021/12/12 09:02:29;;;;;;;3.97;1.83;;;1.00;99.90;;;;;;4975621;28;20556;-64
2021/12/12 09:05:00;;;;;;;4.53;2.03;;;1.00;99.90;;;;;;4977503;28;20469;-64
2021/12/12 09:07:37;;;;;;;3.37;1.53;;;1.00;99.90;;;;;;4985140;28;20219;-64
2021/12/12 09:10:25;;;;;;;5.57;2.20;;;1.10;99.90;;;;;;4974051;28;20771;-64
2021/12/12 09:12:50;;;;;;;3.23;1.53;;;1.10;99.90;;;;;;4971442;28;20935;-64
2021/12/12 09:15:29;;;;;;;2.67;1.40;;;1.10;99.90;;;;;;4971079;28;20425;-64
2021/12/12 09:17:59;;;;;;;4.50;2.57;;;1.20;99.90;;;;;;4970974;28;20207;-64
2021/12/12 09:20:47;;;;;;;5.37;2.10;;;1.30;99.90;;;;;;4981854;28;20466;-64
2021/12/12 09:23:37;;;;;;;5.70;2.03;;;1.30;99.90;;;;;;4971316;28;20515;-64
2021/12/12 09:26:07;;;;;;;2.20;1.17;;;1.40;99.90;;;;;;4970878;28;20545;-64
2021/12/12 09:28:54;;;;;;;4.03;1.80;;;1.60;99.90;;;;;;4977920;28;20430;-64
2021/12/12 09:31:26;;;;;;;5.40;1.90;;;1.80;99.90;;;;;;4972034;28;20416;-64
2021/12/12 09:33:55;;;;;;;4.47;1.97;;;1.90;99.90;;;;;;4974500;28;20411;-64
2021/12/12 09:36:28;;;;;;;3.90;1.80;;;1.80;99.90;;;;;;4981072;28;20454;-64
2021/12/12 09:39:01;;;;;;;5.00;1.70;;;1.90;99.90;;;;;;4979850;28;20493;-64
2021/12/12 09:42:04;;;;;;;3.50;1.37;;;1.90;99.90;;;;;;4977048;28;20477;-64
2021/12/12 09:44:51;;;;;;;3.13;1.90;;;1.90;99.90;;;;;;4970779;28;20478;-64
2021/12/12 09:47:46;;;;;;;2.90;1.40;;;2.00;99.90;;;;;;4981635;28;20431;-64
2021/12/12 09:53:41;;;;;;;1.80;0.97;;;2.10;99.90;;;;;;4976867;28;20503;-64
2021/12/12 09:56:18;;;;;;;2.30;1.30;;;2.20;99.90;;;;;;4975516;28;20423;-64
2021/12/12 09:59:01;;;;;;;2.47;1.37;;;2.30;99.90;;;;;;4974066;28;20417;-64
2021/12/12 10:01:37;;;;;;;2.80;1.70;;;2.40;99.90;;;;;;4975309;28;20431;-64
2021/12/12 10:04:26;;;;;;;2.67;1.00;;;2.50;99.90;;;;;;4982034;28;20550;-64
2021/12/12 10:07:04;;;;;;;3.03;1.23;;;2.40;99.90;;;;;;4974226;28;20471;-64
2021/12/12 10:09:47;;;;;;;2.23;1.00;;;2.50;99.90;;;;;;4970722;28;20483;-64
2021/12/12 10:12:19;;;;;;;2.27;1.10;;;2.60;99.90;;;;;;4970422;28;20416;-64
2021/12/12 10:14:50;;;;;;;5.63;2.87;;;2.60;99.90;;;;;;4970630;28;20578;-64
2021/12/12 10:17:31;;;;;;;3.60;1.77;;;2.50;99.90;;;;;;4969565;28;20515;-64
2021/12/12 10:20:28;;;;;;;3.40;1.63;;;2.50;99.90;;;;;;4970013;28;20438;-64
2021/12/12 10:23:19;;;;;;;2.70;1.37;;;2.50;99.90;;;;;;4968503;28;20428;-63
2021/12/12 10:25:45;;;;;;;2.80;1.83;;;2.50;99.90;;;;;;4968244;28;20467;-64
2021/12/12 10:28:18;;;;;;;3.60;2.17;;;2.40;99.90;;;;;;4968382;28;20428;-65
2021/12/12 10:30:53;;;;;;;4.70;2.27;;;2.40;99.90;;;;;;4969792;28;20223;-65
2021/12/12 10:33:23;;;;;;;3.50;1.70;;;2.40;99.90;;;;;;4968714;28;20492;-64
2021/12/12 10:36:07;;;;;;;5.30;2.17;;;2.40;99.90;;;;;;4976733;28;20798;-64
2021/12/12 10:38:56;;;;;;;2.70;1.60;;;2.50;99.90;;;;;;4978272;28;20802;-66
2021/12/12 10:41:25;;;;;;;2.63;1.27;;;2.50;99.90;;;;;;4973872;28;20424;-65
2021/12/12 10:43:57;;;;;;;4.53;1.33;;;2.60;99.90;;;;;;4977422;28;20550;-66
2021/12/12 10:46:39;;;;;;;7.73;1.50;;;2.70;99.90;;;;;;4967524;28;20587;-66
2021/12/12 10:49:23;;;;;;;2.27;1.03;;;2.70;99.90;;;;;;4969562;28;20463;-65
2021/12/12 10:51:58;;;;;;;1.80;1.17;;;2.70;99.90;;;;;;4969702;28;20506;-65
2021/12/12 10:54:32;;;;;;;3.37;1.37;;;2.80;99.90;;;;;;4974701;28;20427;-65
2021/12/12 10:57:17;;;;;;;3.60;1.20;;;2.80;99.90;;;;;;4979811;28;20446;-65
2021/12/12 10:59:51;;;;;;;3.20;1.43;;;2.90;99.90;;;;;;4980924;28;20988;-65
2021/12/12 11:02:20;;;;;;;4.80;1.50;;;2.80;99.90;;;;;;4984838;28;20767;-65
2021/12/12 11:05:00;;;;;;;3.20;1.97;;;2.90;99.90;;;;;;4978264;28;20514;-65
2021/12/12 11:07:31;;;;;;;2.77;1.67;;;3.00;99.90;;;;;;4979597;28;20846;-65
2021/12/12 11:10:06;;;;;;;6.07;2.47;;;3.30;99.90;;;;;;4982872;28;20423;-65
2021/12/12 11:12:42;;;;;;;4.47;1.70;;;3.40;99.90;;;;;;4978203;28;20422;-66
2021/12/12 11:15:14;;;;;;;3.57;1.53;;;3.40;99.90;;;;;;4973209;28;20522;-65
2021/12/12 11:18:02;;;;;;;4.17;1.73;;;3.40;99.90;;;;;;4979753;28;20451;-65
2021/12/12 11:20:31;;;;;;;2.77;1.43;;;3.60;99.90;;;;;;4981429;28;20423;-65
2021/12/12 11:23:22;;;;;;;4.13;1.60;;;3.50;99.90;;;;;;4984410;28;20454;-66
2021/12/12 11:25:50;;;;;;;5.50;1.57;;;3.60;99.90;;;;;;4982061;28;20465;-66
2021/12/12 11:28:29;;;;;;;3.40;1.73;;;3.50;99.90;;;;;;4980493;28;20451;-66
2021/12/12 11:31:04;;;;;;;8.00;2.30;;;3.50;99.90;;;;;;4979516;28;21067;-66
2021/12/12 11:33:33;;;;;;;3.00;1.43;;;3.50;99.90;;;;;;4979860;28;21121;-66
2021/12/12 11:36:00;;;;;;;8.10;1.70;;;3.50;99.90;;;;;;4979623;28;20826;-66
2021/12/12 11:38:52;;;;;;;4.77;2.30;;;3.50;99.90;;;;;;4986372;28;20466;-66
2021/12/12 11:41:33;;;;;;;5.10;2.00;;;3.50;99.90;;;;;;4970901;28;20471;-65
2021/12/12 11:44:21;;;;;;;3.73;1.57;;;3.60;99.90;;;;;;4974340;28;20439;-65
2021/12/12 11:46:59;;;;;;;2.87;1.50;;;3.60;99.90;;;;;;4972043;28;20478;-65
2021/12/12 11:49:38;;;;;;;2.77;1.10;;;3.70;99.90;;;;;;4983022;28;20787;-66
2021/12/12 11:52:09;;;;;;;3.90;1.70;;;3.50;99.90;;;;;;4973941;28;20462;-65
2021/12/12 11:54:58;;;;;;;2.80;1.77;;;3.60;99.90;;;;;;4973882;28;20818;-64
2021/12/12 11:57:48;;;;;;;4.67;2.03;;;3.60;99.90;;;;;;4974748;28;20440;-63
2021/12/12 12:00:21;;;;;;;2.70;1.20;;;3.60;99.90;;;;;;4986441;28;20457;-63
2021/12/12 12:03:27;;;;;;;3.83;1.83;;;3.60;99.90;;;;;;4991853;28;20926;-64
2021/12/12 12:06:15;;;;;;;3.70;2.13;;;3.60;99.90;;;;;;4974853;28;20497;-65
2021/12/12 12:08:56;;;;;;;3.13;1.67;;;3.80;99.90;;;;;;4983528;28;20830;-65
2021/12/12 12:11:40;;;;;;;4.43;1.70;;;3.90;99.90;;;;;;4985615;28;20455;-65
2021/12/12 12:14:39;;;;;;;4.20;1.70;;;4.00;99.90;;;;;;4990940;28;20441;-66
2021/12/12 12:17:14;;;;;;;3.40;1.47;;;4.00;99.90;;;;;;4985492;28;20916;-64
2021/12/12 12:20:18;;;;;;;4.10;2.50;;;4.10;99.90;;;;;;4978724;28;20455;-63
2021/12/12 12:23:05;;;;;;;3.60;1.63;;;4.10;99.90;;;;;;4982465;28;20434;-65
2021/12/12 12:28:35;;;;;;;2.13;1.30;;;4.10;99.90;;;;;;4951604;28;20763;-65
2021/12/12 12:31:08;;;;;;;3.00;1.40;;;4.10;99.90;;;;;;4985889;28;20427;-65
2021/12/12 12:34:11;;;;;;;1.83;1.20;;;4.00;99.90;;;;;;4990351;28;20430;-65
2021/12/12 12:37:41;;;;;;;3.00;1.27;;;4.00;99.90;;;;;;4979245;28;21238;-63
2021/12/12 12:40:38;;;;;;;3.77;1.50;;;4.00;99.90;;;;;;4966695;28;20435;-65
2021/12/12 12:43:40;;;;;;;6.57;1.33;;;3.90;99.90;;;;;;4966076;28;20482;-62
2021/12/12 12:46:37;;;;;;;3.03;1.23;;;3.80;99.90;;;;;;4983293;28;20618;-66
2021/12/12 12:49:47;;;;;;;2.90;1.17;;;3.80;99.90;;;;;;4981588;28;20419;-66
2021/12/12 12:52:37;;;;;;;2.60;1.60;;;3.90;99.90;;;;;;4973416;28;20445;-65
2021/12/12 12:55:33;;;;;;;3.40;1.23;;;3.90;99.90;;;;;;4989594;28;20450;-64
2021/12/12 12:58:23;;;;;;;3.43;1.90;;;3.90;99.90;;;;;;4979962;28;20448;-64
2021/12/12 13:00:54;;;;;;;2.77;1.33;;;4.00;99.90;;;;;;4975999;28;20446;-62
2021/12/12 13:03:53;;;;;;;3.10;1.43;;;4.00;99.90;;;;;;4988663;28;21178;-62
2021/12/12 13:06:43;;;;;;;2.37;1.33;;;4.00;99.90;;;;;;4981479;28;20491;-61
2021/12/12 13:09:35;;;;;;;2.57;1.37;;;4.00;99.90;;;;;;4977371;28;20422;-64
2021/12/12 13:12:09;;;;;;;3.50;1.60;;;3.90;99.90;;;;;;4978079;28;20515;-63
2021/12/12 13:15:09;;;;;;;4.03;1.90;;;4.00;99.90;;;;;;4975487;28;20517;-64
2021/12/12 13:17:42;;;;;;;3.97;1.50;;;4.00;99.90;;;;;;4970659;28;20420;-63
2021/12/12 13:20:53;;;;;;;2.80;1.67;;;4.00;99.90;;;;;;4979093;28;20454;-64
2021/12/12 13:23:27;;;;;;;4.50;1.20;;;4.10;99.90;;;;;;4973923;28;20488;-63
2021/12/12 13:25:56;;;;;;;2.13;1.10;;;4.10;99.90;;;;;;4970616;28;20467;-64
2021/12/12 13:28:56;;;;;;;4.43;1.73;;;4.10;99.90;;;;;;4972392;28;20424;-63
2021/12/12 13:32:14;;;;;;;2.80;1.53;;;4.10;99.90;;;;;;4964303;28;21143;-63
2021/12/12 13:34:53;;;;;;;2.77;1.50;;;4.10;99.90;;;;;;4981007;28;21213;-63
2021/12/12 13:37:38;;;;;;;2.13;1.43;;;4.20;99.90;;;;;;4970651;28;20531;-63
2021/12/12 13:40:44;;;;;;;2.93;1.53;;;4.20;99.90;;;;;;4978705;28;20430;-64
2021/12/12 13:43:35;;;;;;;3.23;1.53;;;4.20;99.90;;;;;;4970683;28;20914;-64
2021/12/12 13:46:26;;;;;;;3.53;1.77;;;4.20;99.90;;;;;;4977580;28;20468;-64
2021/12/12 13:49:04;;;;;;;3.20;1.63;;;4.10;99.90;;;;;;4980557;28;20427;-64
2021/12/12 13:51:33;;;;;;;2.40;1.37;;;4.10;99.90;;;;;;4975745;28;20862;-64
2021/12/12 13:54:07;;;;;;;5.10;2.13;;;4.10;99.90;;;;;;4980395;28;20960;-66
2021/12/12 13:56:46;;;;;;;4.47;2.13;;;4.10;99.90;;;;;;4981550;28;20473;-63